METAR Data
IDs: Format: Raw Decoded Include TAF

Data at: 0302 UTC 10 Dec 2022

KS21 100250Z AUTO 20018G24KT 1 3/4SM -UP SCT003 BKN008 OVC027 M01/M02 A2967 RMK AO2
KS21 100230Z AUTO 21019G27KT 1 1/2SM -UP SCT003 OVC008 M01/M02 A2968 RMK AO2
KS21 100210Z AUTO 20021G28KT 1 1/2SM BR BKN003 OVC010 M01/M02 A2968 RMK AO2
KS21 100155Z AUTO 20020G26KT 1SM -UP BKN003 OVC009 M01/M02 A2969 RMK AO2
KS21 100135Z AUTO 21016G23KT 2 1/2SM BR SCT009 SCT022 OVC029 M01/M02 A2969 RMK AO2
KS21 100115Z AUTO 20020G27KT 1 3/4SM BR BKN003 BKN009 OVC029 M01/M02 A2971 RMK AO2
KS21 100055Z AUTO 20019G29KT 1 1/4SM BR OVC003 M02/M03 A2972 RMK AO2
KS21 100035Z AUTO 20020G27KT 1/2SM FZFG OVC003 M02/M03 A2973 RMK AO2
KS21 100015Z AUTO 20018KT 1/2SM -SN OVC003 M02/M03 A2975 RMK AO2
KS21 092350Z AUTO 20017G22KT 1/4SM -SN OVC003 M02/M03 A2976 RMK AO2
KS21 092330Z AUTO 21018G25KT 1/4SM -SN OVC003 M02/M03 A2977 RMK AO2
KS21 092310Z AUTO 20016G27KT 1/4SM -SN OVC003 M02/M03 A2978 RMK AO2
KS21 092250Z AUTO 20019G25KT 1/2SM -UP BKN003 M02/M03 A2979 RMK AO2
KS21 092235Z AUTO 20019G26KT 1 1/4SM -UP FEW017 SCT027 M01/M03 A2980 RMK AO2
KS21 092215Z AUTO 20017G23KT 1 1/2SM -UP SCT019 OVC026 M01/M03 A2980 RMK AO2
KS21 092150Z AUTO 20015G23KT 2SM -UP FEW020 SCT027 M01/M03 A2981 RMK AO2
KS21 092135Z AUTO 20016G22KT 2 1/2SM -UP SCT028 SCT033 M01/M03 A2982 RMK AO2
KS21 092110Z AUTO 20016KT 3SM HZ BKN027 BKN039 M01/M04 A2984 RMK AO2
KS21 092055Z AUTO 20016G21KT 6SM HZ FEW028 SCT039 M01/M04 A2985 RMK AO2
KS21 092035Z AUTO 20015G22KT 1 3/4SM BR CLR M01/M03 A2986 RMK AO2
KS21 092015Z AUTO 21018KT 1 3/4SM -UP FEW011 SCT024 SCT033 M02/M03 A2988 RMK AO2
KS21 091955Z AUTO 20016G21KT 1 3/4SM BR FEW011 SCT026 SCT034 M02/M03 A2990 RMK AO2
KS21 091935Z AUTO 20017KT 2SM -UP SCT022 BKN026 BKN033 M02/M04 A2992 RMK AO2
KS21 091915Z AUTO 20014KT 1 1/2SM -UP OVC022 M02/M04 A2993 RMK AO2
KS21 091855Z AUTO 19018KT 3SM -UP OVC022 M02/M04 A2993 RMK AO2
KS21 091835Z AUTO 20013G19KT 9SM BKN024 OVC032 M02/M04 A2994 RMK AO2
KS21 091815Z AUTO 19016G22KT 4SM BR FEW025 SCT032 SCT043 M02/M04 A2995 RMK AO2
KS21 091755Z AUTO 20016G26KT 1 3/4SM BR FEW026 SCT032 SCT039 M03/M05 A2995 RMK AO2
KS21 091735Z AUTO 20016G24KT 5SM BR SCT027 SCT032 BKN039 M03/M05 A2995 RMK AO2
KS21 091715Z AUTO 19017KT 5SM BR SCT026 BKN033 BKN039 M03/M05 A2995 RMK AO2
KS21 091655Z AUTO 19017G22KT 8SM BKN025 OVC032 M03/M05 A2996 RMK AO2
KS21 091635Z AUTO 19017KT 3SM -SN BKN025 OVC031 M03/M05 A2997 RMK AO2
KS21 091615Z AUTO 19013G19KT 10SM -SN BKN025 OVC029 M04/M05 A2997 RMK AO2
KS21 091555Z AUTO 20016KT 8SM -SN FEW005 SCT025 BKN029 M04/M05 A2997 RMK AO2
KS21 091535Z AUTO 20013KT 6SM -SN FEW003 FEW010 OVC027 M04/M05 A2997 RMK AO2
KS21 091515Z AUTO 19012KT 1 3/4SM -SN SCT004 BKN009 OVC024 M04/M05 A2997 RMK AO2
KS21 091455Z AUTO 20012KT 10SM FEW019 BKN024 OVC037 M04/M05 A2997 RMK AO2
KS21 091435Z AUTO 19014KT 2 1/2SM -SN FEW005 SCT019 BKN025 M04/M05 A2996 RMK AO2
KS21 091410Z AUTO 20009KT 9SM -SN FEW023 SCT029 BKN033 M04/M05 A2996 RMK AO2
KS21 091355Z AUTO 20009KT 3SM -SN SCT027 OVC040 M04/M05 A2996 RMK AO2
KS21 091335Z AUTO 20010KT 3SM -SN BKN028 OVC034 M04/M05 A2996 RMK AO2
KS21 091315Z AUTO 21008KT 10SM BKN034 OVC041 M04/M05 A2997 RMK AO2
KS21 091255Z AUTO 21008KT 10SM BKN009 OVC041 M04/M05 A2997 RMK AO2
KS21 091235Z AUTO 19011KT 7SM -SN BKN010 OVC015 M03/M05 A2998 RMK AO2
KS21 091215Z AUTO 18012KT 10SM OVC016 M03/M05 A2998 RMK AO2
KS21 091155Z AUTO 17013KT 10SM BKN018 BKN025 OVC049 M04/M05 A2998 RMK AO2
KS21 091135Z AUTO 20009KT 9SM -UP SCT016 BKN026 OVC033 M04/M05 A2998 RMK AO2
KS21 091115Z AUTO 20010KT 10SM SCT019 SCT024 OVC033 M04/M05 A2999 RMK AO2
KS21 091055Z AUTO 22006G15KT 10SM SCT019 BKN028 OVC065 M03/M06 A2999 RMK AO2
KS21 091035Z AUTO 18012KT 10SM BKN029 BKN039 OVC060 M03/M06 A2999 RMK AO2
KS21 091015Z AUTO 19014KT 10SM SCT024 OVC029 M03/M05 A2999 RMK AO2
KS21 090955Z AUTO 18014KT 10SM SCT023 BKN028 OVC034 M03/M05 A2998 RMK AO2
KS21 090935Z AUTO 16012KT 10SM FEW009 FEW023 BKN030 M04/M05 A2997 RMK AO2
KS21 090915Z AUTO 19011G19KT 10SM FEW010 SCT026 BKN075 M05/M05 A2997 RMK AO2
KS21 090855Z AUTO 20012KT 10SM FEW008 SCT039 BKN060 M03/M05 A2997 RMK AO2
KS21 090830Z AUTO 20014KT 6SM -SN SCT003 BKN029 OVC038 M03/M04 A2996 RMK AO2
KS21 090815Z AUTO 20015G22KT 2 1/2SM -SN BKN003 BKN013 OVC036 M03/M04 A2996 RMK AO2
KS21 090755Z AUTO 20016KT 3/4SM -SN OVC003 M03/M04 A2996 RMK AO2
KS21 090735Z AUTO 20013KT 10SM SCT030 BKN036 OVC046 M03/M04 A2996 RMK AO2
KS21 090715Z AUTO 21011KT 10SM OVC034 M03/M05 A2996 RMK AO2
KS21 090655Z AUTO 19013KT 10SM FEW028 OVC033 M03/M04 A2996 RMK AO2
KS21 090635Z AUTO 19010KT 10SM SCT028 BKN033 OVC075 M04/M05 A2995 RMK AO2
KS21 090615Z AUTO 20010KT 10SM BKN029 OVC034 M03/M05 A2995 RMK AO2
KS21 090555Z AUTO 19014KT 10SM OVC030 M02/M05 A2995 RMK AO2
KS21 090535Z AUTO 20013KT 10SM FEW003 BKN032 M03/M05 A2995 RMK AO2
KS21 090515Z AUTO 20012KT 9SM FEW003 FEW031 M03/M05 A2995 RMK AO2
KS21 090455Z AUTO 19013KT 10SM FEW016 SCT021 SCT028 M03/M05 A2995 RMK AO2
KS21 090435Z AUTO 20014KT 10SM SCT016 BKN022 OVC048 M02/M05 A2994 RMK AO2
KS21 090415Z AUTO 21012KT 10SM SCT035 BKN047 OVC060 M02/M04 A2994 RMK AO2
KS21 090355Z AUTO 21011KT 10SM FEW028 SCT040 OVC060 M01/M03 A2994 RMK AO2
KS21 090335Z AUTO 22011KT 8SM -SN FEW030 SCT036 BKN046 M00/M02 A2993 RMK AO2
KS21 090315Z AUTO 18011KT 8SM SCT003 BKN016 OVC060 M01/M01 A2992 RMK AO2
KS21 090250Z AUTO 20012KT 1/4SM -SN BKN003 OVC009 M00/M01 A2992 RMK AO2
KS21 090235Z AUTO 21009KT 10SM BKN011 BKN019 OVC026 M00/M01 A2991 RMK AO2
KS21 090215Z AUTO 19010KT 10SM BKN009 BKN014 OVC035 M00/M01 A2990 RMK AO2
KS21 090155Z AUTO 19011KT 10SM OVC008 M00/M01 A2990 RMK AO2
KS21 090135Z AUTO 19012KT 5SM -SN OVC007 00/M01 A2990 RMK AO2
KS21 090115Z AUTO 20009KT 4SM BR BKN008 OVC012 00/M01 A2991 RMK AO2
KS21 090055Z AUTO 19009KT 1 1/4SM -SN BKN006 OVC010 00/M01 A2990 RMK AO2 P0001 VIS 1V2 1/2
KS21 090035Z AUTO 20008G13KT 1SM -SN OVC005 00/M01 A2990 RMK AO2
KS21 090015Z AUTO 20009KT 3/4SM -SN OVC004 00/M01 A2990 RMK AO2
KS21 082355Z AUTO 1/2SM -SN OVC004 00/M00 A2991 RMK AO2 P0001
KS21 082335Z AUTO 20011KT 1/2SM -SN OVC004 00/M00 A2991 RMK AO2
KS21 082315Z AUTO 20011KT 1/2SM -SN OVC004 00/M01 A2991 RMK AO2
KS21 082255Z AUTO 20010G16KT 1/2SM -SN BKN003 BKN008 OVC034 00/M01 A2992 RMK AO2
KS21 082235Z AUTO 21010G17KT 1 1/2SM -SN BKN024 BKN034 00/M01 A2991 RMK AO2
KS21 082215Z AUTO 21011KT 3SM BR BKN024 BKN037 00/M01 A2991 RMK AO2
KS21 082155Z AUTO 21012KT 1 1/2SM -SN SCT007 SCT025 SCT031 00/M01 A2991 RMK AO2
KS21 082135Z AUTO 22010G18KT 1SM -SN CLR 00/M01 A2992 RMK AO2
KS21 082110Z AUTO 21011KT 3/4SM -SN VV005 M00/M01 A2993 RMK AO2
KS21 082055Z AUTO 21010KT 1 1/4SM -SN CLR M00/M01 A2994 RMK AO2
KS21 082035Z AUTO 21009KT 1SM -SN CLR M01/M02 A2995 RMK AO2
KS21 082015Z AUTO 23007G13KT 1 1/2SM -SN SCT007 M01/M02 A2997 RMK AO2
KS21 081955Z AUTO 22010KT 1SM -SN CLR M01/M02 A2998 RMK AO2
KS21 081935Z AUTO 22009G14KT 1 1/4SM -SN SCT003 M01/M02 A2999 RMK AO2
KS21 081915Z AUTO 21010G16KT 3/4SM -SN BKN003 BKN011 M01/M02 A3000 RMK AO2
KS21 081855Z AUTO 23010KT 3/4SM -SN BKN009 BKN013 M01/M03 A3001 RMK AO2
KS21 081835Z AUTO 23008G13KT 1SM -SN SCT011 SCT032 M02/M03 A3002 RMK AO2
KS21 081815Z AUTO 23008KT 3SM -SN SCT032 M02/M03 A3003 RMK AO2
KS21 081755Z AUTO 24010KT 200V260 1SM -SN BKN003 BKN031 BKN037 M02/M03 A3003 RMK AO2
KS21 081735Z AUTO 23009KT 1/2SM -SN OVC003 M02/M03 A3003 RMK AO2
KS21 081715Z AUTO 24010KT 1SM -SN SCT003 M02/M04 A3004 RMK AO2
KS21 081655Z AUTO 24012KT 3SM -SN FEW018 FEW024 FEW030 M02/M05 A3004 RMK AO2
KS21 081635Z AUTO 23012G18KT 2SM -SN FEW026 SCT031 SCT045 M02/M04 A3004 RMK AO2
KS21 081615Z AUTO 24013G18KT 9SM -UP BKN026 BKN032 M02/M05 A3004 RMK AO2
KS21 081555Z AUTO 23013KT 8SM -UP FEW025 BKN031 OVC055 M02/M05 A3004 RMK AO2
KS21 081530Z AUTO 23012KT 10SM SCT028 BKN042 OVC060 M03/M05 A3004 RMK AO2
KS21 081515Z AUTO 22010G18KT 10SM FEW030 SCT035 BKN042 M03/M05 A3005 RMK AO2